Latest Weather Observations for Edinburgh

IDS60801

Issued at 9:32 pm CDT Tuesday 31 March 2015 (issued every 30 minutes, with the page automatically refreshed every 10 minutes)

About weather observations | Map of weather stations | Latest weather observations for SA | Other Formats
Station Details ID: 023083 Name: EDINBURGH RAAF Lat: -34.71 Lon: 138.62 Height: 16.54 m
Data from the previous 72 hours. | See also: Recent months at Edinburgh
Date/Time
CDT
Temp
°C
App
Temp
°C
Dew
Point
Rel
Hum
%
Delta-T
°C
Wind Press
QNH
hPa
Press
MSL
hPa
Rain
since 9 am
mm
Dir
 
Spd
km/h
Gust
km/h
Spd
kts
Gust
kts
31/09:30pm 22.6 20.2 6.8 36 8.1 ENE 9 11 5 6 1019.0 1018.9 -
31/09:00pm 22.3 20.3 6.1 35 8.2 E 6 9 3 5 1019.0 1018.9 0.0
31/08:30pm 24.3 22.5 7.0 33 9.0 ESE 6 7 3 4 1019.0 1018.9 0.0
31/08:00pm 25.0 23.1 6.7 31 9.5 SE 6 9 3 5 1019.0 1018.9 0.0
31/07:30pm 25.7 23.3 6.8 30 9.9 SE 9 13 5 7 1019.1 1019.0 0.0
31/07:00pm 26.4 24.4 6.9 29 10.3 SSE 7 11 4 6 1019.2 1019.1 0.0
31/06:30pm 26.9 24.6 7.4 29 10.4 S 9 15 5 8 1019.2 1019.1 0.0
31/06:00pm 27.4 23.0 7.3 28 10.7 SSW 20 22 11 12 1019.2 1019.1 0.0
31/05:30pm 27.5 23.2 7.9 29 10.5 SW 20 24 11 13 1018.9 1018.8 0.0
31/05:00pm 28.9 24.7 7.5 26 11.5 SSW 19 22 10 12 1018.8 1018.7 0.0
31/04:30pm 29.0 24.6 7.6 26 11.5 SW 20 26 11 14 1019.0 1018.9 0.0
31/04:00pm 28.8 23.4 6.2 24 11.9 WSW 24 28 13 15 1019.4 1019.3 0.0
31/03:30pm 29.9 25.6 7.2 24 12.2 WSW 19 24 10 13 1019.5 1019.4 0.0
31/03:00pm 30.2 26.2 6.8 23 12.5 W 17 24 9 13 1019.8 1019.7 0.0
31/02:30pm 29.8 26.7 7.1 24 12.2 WNW 13 22 7 12 1020.2 1020.1 0.0
31/02:00pm 30.1 25.6 4.0 19 13.4 N 17 26 9 14 1020.8 1020.7 0.0
31/01:30pm 29.5 24.6 4.2 20 12.9 NE 19 28 10 15 1021.6 1021.5 0.0
31/01:00pm 29.1 24.3 4.6 21 12.6 NNE 19 30 10 16 1022.0 1021.9 0.0
31/12:30pm 28.5 23.9 5.4 23 12.0 NNE 19 28 10 15 1022.6 1022.5 0.0
31/12:00pm 28.1 23.6 6.2 25 11.5 NE 19 26 10 14 1023.1 1023.0 0.0
31/11:30am 26.5 20.8 6.5 28 10.4 NE 26 33 14 18 1023.3 1023.2 0.0
31/11:00am 26.1 19.6 6.7 29 10.2 NE 30 35 16 19 1023.5 1023.4 0.0
31/10:30am 25.3 19.3 7.0 31 9.5 NE 28 39 15 21 1023.7 1023.6 0.0
31/10:00am 24.1 17.8 7.3 34 8.8 NE 30 33 16 18 1024.0 1023.9 0.0
31/09:30am 23.3 19.3 8.2 38 8.0 NE 19 24 10 13 1024.1 1024.0 0.0
31/09:00am 19.7 17.9 9.6 52 5.3 NE 9 9 5 5 1024.1 1024.0 0.0
31/08:30am 16.4 16.2 10.3 67 3.2 N 2 9 1 5 1024.0 1023.9 0.0
31/08:00am 12.9 12.4 9.4 79 1.8 NNW 2 6 1 3 1023.9 1023.8 0.0
31/07:30am 11.7 10.1 8.0 78 1.8 WNW 6 7 3 4 1023.9 1023.8 0.0
31/07:00am 12.2 10.7 8.3 77 1.9 WSW 6 7 3 4 1023.8 1023.7 0.0
31/06:30am 13.5 11.8 7.5 67 2.9 ENE 6 7 3 4 1023.7 1023.6 0.0
31/06:00am 12.9 11.4 8.4 74 2.2 NE 6 9 3 5 1023.1 1023.0 0.0
31/05:30am 13.0 12.6 8.1 72 2.4 CALM 0 0 0 0 1023.3 1023.2 0.0
31/05:00am 13.8 13.4 8.2 69 2.8 CALM 0 0 0 0 1023.2 1023.1 0.0
31/04:30am 16.0 14.0 8.7 62 3.7 ENE 9 13 5 7 1023.1 1023.0 0.0
31/04:00am 16.9 14.7 9.3 61 4.0 NE 11 13 6 7 1023.3 1023.2 0.0
31/03:30am 17.4 15.1 9.1 58 4.3 NE 11 17 6 9 1023.4 1023.3 0.0
31/03:00am 16.7 15.3 9.6 63 3.7 NE 7 11 4 6 1023.6 1023.5 0.0
31/02:30am 14.4 12.7 7.7 64 3.3 E 6 11 3 6 1023.5 1023.4 0.0
31/02:00am 14.8 13.7 8.5 66 3.2 W 4 6 2 3 1023.7 1023.6 0.0
31/01:30am 14.6 13.1 8.5 67 3.1 WNW 6 9 3 5 1023.9 1023.8 0.0
31/01:00am 15.4 13.7 8.2 62 3.6 WNW 7 9 4 5 1023.9 1023.8 0.0
31/12:30am 19.6 18.1 8.3 48 5.8 SE 6 13 3 7 1023.9 1023.8 0.0
31/12:00am 19.6 18.0 8.6 49 5.7 E 7 9 4 5 1024.1 1024.0 0.0
 
Date/Time
CDT
Temp
°C
App
Temp
°C
Dew
Point
Rel
Hum
%
Delta-T
°C
Wind Press
QNH
hPa
Press
MSL
hPa
Rain
since 9 am
mm
Dir
 
Spd
km/h
Gust
km/h
Spd
kts
Gust
kts
30/11:30pm 19.3 17.7 8.6 50 5.5 NE 7 15 4 8 1024.4 1024.3 0.0
30/11:00pm 20.2 18.3 9.2 49 5.8 ESE 9 15 5 8 1024.5 1024.4 0.0
30/10:30pm 20.1 17.9 9.4 50 5.7 ESE 11 17 6 9 1024.6 1024.5 0.0
30/10:00pm 20.6 18.0 9.5 49 5.9 SE 13 22 7 12 1024.7 1024.6 0.0
30/09:30pm 20.7 19.0 9.9 50 5.8 SE 9 19 5 10 1024.6 1024.5 0.0
30/09:00pm 21.2 19.6 10.1 49 6.0 ESE 9 13 5 7 1024.6 1024.5 0.0
30/08:30pm 20.4 18.8 10.2 52 5.5 SSE 9 11 5 6 1024.3 1024.2 0.0
30/08:00pm 20.9 19.3 10.1 50 5.8 S 9 11 5 6 1023.8 1023.7 0.0
30/07:30pm 21.4 19.0 9.9 48 6.2 SSW 13 15 7 8 1023.6 1023.5 0.0
30/07:00pm 22.7 19.8 9.5 43 7.1 S 15 17 8 9 1023.5 1023.4 0.0
30/06:30pm 23.5 20.6 10.9 45 7.0 SW 17 20 9 11 1023.3 1023.2 0.0
30/06:00pm 24.3 20.6 10.2 41 7.7 SW 20 24 11 13 1023.2 1023.1 0.0
30/05:30pm 24.6 20.4 9.7 39 8.1 SW 22 26 12 14 1023.1 1023.0 0.0
30/05:00pm 24.9 21.5 11.1 42 7.8 SW 20 26 11 14 1023.0 1022.9 0.0
30/04:30pm 25.0 21.5 10.8 41 7.9 SW 20 26 11 14 1022.9 1022.8 0.0
30/04:00pm 24.9 20.8 10.0 39 8.2 SW 22 26 12 14 1023.0 1022.9 0.0
30/03:30pm 25.4 21.6 9.7 37 8.6 SW 20 28 11 15 1023.1 1023.0 0.0
30/03:00pm 26.1 22.4 10.3 37 8.8 SW 20 28 11 15 1023.2 1023.1 0.0
30/02:30pm 25.7 22.5 9.9 37 8.7 SW 17 24 9 13 1023.5 1023.4 0.0
30/02:00pm 26.0 23.9 9.8 36 9.0 S 11 19 6 10 1023.7 1023.6 0.0
30/01:30pm 25.1 23.1 8.6 35 8.8 N 9 15 5 8 1024.1 1024.0 0.0
30/01:00pm 24.9 23.4 9.2 37 8.5 W 7 13 4 7 1024.4 1024.3 0.0
30/12:30pm 23.6 22.0 8.8 39 7.9 SSE 7 11 4 6 1024.9 1024.8 0.0
30/12:00pm 23.4 22.1 10.1 43 7.3 SSE 7 11 4 6 1025.1 1025.0 0.0
30/11:30am 23.2 22.0 9.6 42 7.3 ENE 6 11 3 6 1025.4 1025.3 0.0
30/11:00am 23.0 22.0 10.4 45 6.9 NE 6 9 3 5 1025.6 1025.5 0.0
30/10:30am 22.0 20.7 9.9 46 6.5 NNE 7 11 4 6 1025.7 1025.6 0.0
30/10:00am 21.6 20.5 10.1 48 6.2 ENE 6 9 3 5 1025.7 1025.6 0.0
30/09:30am 20.3 19.0 10.1 52 5.5 ENE 7 9 4 5 1025.6 1025.5 0.0
30/09:00am 18.4 17.1 10.0 58 4.4 ENE 7 9 4 5 1025.3 1025.2 0.0
30/08:30am 15.8 14.4 9.5 66 3.2 E 7 9 4 5 1025.0 1024.9 0.0
30/08:00am 13.5 11.6 9.2 75 2.2 ENE 9 11 5 6 1024.8 1024.7 0.0
30/07:30am 12.1 10.5 8.2 77 1.9 E 6 7 3 4 1024.5 1024.4 0.0
30/07:00am 11.9 10.2 8.2 78 1.8 ENE 7 9 4 5 1024.0 1023.9 0.0
30/06:30am 11.6 9.4 7.9 78 1.8 NE 9 9 5 5 1023.7 1023.6 0.0
30/06:00am 11.8 10.0 8.1 78 1.8 NE 7 9 4 5 1023.3 1023.2 0.0
30/05:30am 11.6 9.4 7.9 78 1.8 NE 9 11 5 6 1023.0 1022.9 0.0
30/05:00am 11.7 10.1 8.0 78 1.8 NNE 6 9 3 5 1023.1 1023.0 0.0
30/04:30am 12.8 11.4 8.9 77 1.9 ENE 6 7 3 4 1023.0 1022.9 0.0
30/04:00am 12.1 10.7 7.4 73 2.3 ENE 4 6 2 3 1023.0 1022.9 0.0
30/03:30am 13.2 11.2 8.7 74 2.2 NE 9 11 5 6 1023.1 1023.0 0.0
30/03:00am 12.9 10.9 8.8 76 2.0 ENE 9 11 5 6 1023.3 1023.2 0.0
30/02:30am 13.0 11.5 9.3 78 1.9 ENE 7 9 4 5 1023.6 1023.5 0.0
30/02:00am 14.0 13.9 9.6 75 2.3 CALM 0 0 0 0 1023.6 1023.5 0.0
30/01:30am 14.1 14.4 10.9 81 1.7 CALM 0 0 0 0 1023.7 1023.6 0.0
30/01:00am 13.9 13.9 9.7 76 2.2 CALM 0 0 0 0 1023.8 1023.7 0.0
30/12:30am 14.4 14.2 9.2 71 2.6 CALM 0 0 0 0 1023.8 1023.7 0.0
30/12:00am 15.8 16.0 10.6 71 2.7 CALM 0 0 0 0 1023.8 1023.7 0.0
 
Date/Time
CDT
Temp
°C
App
Temp
°C
Dew
Point
Rel
Hum
%
Delta-T
°C
Wind Press
QNH
hPa
Press
MSL
hPa
Rain
since 9 am
mm
Dir
 
Spd
km/h
Gust
km/h
Spd
kts
Gust
kts
29/11:30pm 17.2 16.4 11.0 67 3.3 SSE 6 7 3 4 1023.7 1023.6 0.0
29/11:00pm 17.4 16.2 11.7 69 3.1 S 9 9 5 5 1023.8 1023.7 0.0
29/10:30pm 17.3 16.2 11.8 70 3.0 SSW 9 9 5 5 1023.8 1023.7 0.0
29/10:00pm 17.2 17.3 10.3 64 3.7 CALM 0 0 0 0 1023.7 1023.6 0.0
29/09:30pm 17.7 16.4 9.3 58 4.4 SW 6 9 3 5 1023.3 1023.2 0.0
29/09:00pm 19.3 17.5 9.5 53 5.2 SSW 9 13 5 7 1023.1 1023.0 0.0
29/08:30pm 20.6 19.1 9.2 48 6.0 SSW 7 9 4 5 1022.8 1022.7 0.0
29/08:00pm 20.9 19.0 9.2 47 6.2 SW 9 9 5 5 1022.6 1022.5 0.0
29/07:30pm 22.0 19.7 8.9 43 6.9 SW 11 15 6 8 1022.2 1022.1 0.0
29/07:00pm 22.3 19.8 8.4 41 7.3 SSW 11 13 6 7 1022.1 1022.0 0.0
29/06:30pm 22.5 19.2 8.2 40 7.5 SW 15 19 8 10 1021.9 1021.8 0.0
29/06:00pm 22.9 19.5 7.8 38 7.9 SSW 15 19 8 10 1021.6 1021.5 0.0
29/05:30pm 22.9 19.2 7.8 38 7.9 SW 17 20 9 11 1021.5 1021.4 0.0
29/05:00pm 23.1 19.3 7.6 37 8.1 SW 17 22 9 12 1021.4 1021.3 0.0
29/04:30pm 23.5 19.1 6.7 34 8.6 WSW 19 28 10 15 1021.3 1021.2 0.0
29/04:00pm 24.2 19.9 6.9 33 9.0 W 19 28 10 15 1021.4 1021.3 0.0
29/03:30pm 24.6 21.0 6.8 32 9.2 W 15 24 8 13 1021.5 1021.4 0.0
29/03:00pm 24.3 20.3 6.6 32 9.1 WNW 17 22 9 12 1021.6 1021.5 0.0
29/02:30pm 24.3 21.6 5.6 30 9.5 WSW 9 17 5 9 1021.8 1021.7 0.0
29/02:00pm 24.0 19.4 5.8 31 9.3 WSW 19 24 10 13 1022.1 1022.0 0.0
29/01:30pm 24.3 19.6 6.1 31 9.3 WSW 20 26 11 14 1022.3 1022.2 0.0
29/01:00pm 24.9 23.2 5.7 29 9.8 E 4 9 2 5 1022.5 1022.4 0.0
29/12:30pm 24.2 21.1 5.5 30 9.4 WSW 11 19 6 10 1022.8 1022.7 0.0
29/12:00pm 23.7 20.4 4.6 29 9.4 NNW 11 19 6 10 1023.0 1022.9 0.0
29/11:30am 23.1 20.6 4.6 30 9.1 NNW 7 13 4 7 1023.1 1023.0 0.0
29/11:00am 22.5 20.1 4.5 31 8.9 NW 6 13 3 7 1023.1 1023.0 0.0
29/10:30am 22.7 20.3 5.2 32 8.7 NE 7 11 4 6 1023.3 1023.2 0.0
29/10:00am 20.6 17.7 4.6 35 7.8 NE 9 13 5 7 1023.5 1023.4 0.0
29/09:30am 19.7 18.1 6.4 42 6.6 NE 4 9 2 5 1023.4 1023.3 0.0
29/09:00am 16.6 15.5 7.0 53 4.7 N 2 7 1 4 1023.2 1023.1 0.0
29/08:30am 16.4 14.5 6.8 53 4.7 ENE 6 6 3 3 1022.8 1022.7 0.0
29/08:00am 14.1 13.4 6.9 62 3.5 CALM 0 0 0 0 1022.6 1022.5 0.0
29/07:30am 13.2 12.5 7.0 66 3.0 CALM 0 0 0 0 1022.6 1022.5 0.0
29/07:00am 13.1 12.4 7.1 67 2.9 CALM 0 0 0 0 1021.9 1021.8 0.0
29/06:30am 14.0 13.3 7.1 63 3.4 CALM 0 4 0 2 1021.6 1021.5 0.0
29/06:00am 13.2 11.3 6.8 65 3.1 ENE 6 6 3 3 1021.4 1021.3 0.0
29/05:30am 13.6 11.4 6.2 61 3.5 NE 7 7 4 4 1021.1 1021.0 0.0
29/05:00am 14.0 11.9 6.6 61 3.6 NE 7 9 4 5 1020.9 1020.8 0.0
29/04:30am 14.4 12.3 6.5 59 3.8 ENE 7 9 4 5 1020.7 1020.6 0.0
29/04:00am 14.3 11.9 6.9 61 3.6 NE 9 9 5 5 1020.6 1020.5 0.0
29/03:30am 14.0 11.9 6.8 62 3.5 NE 7 9 4 5 1020.7 1020.6 0.0
29/03:00am 13.7 11.6 6.6 62 3.4 NE 7 9 4 5 1021.2 1021.1 0.0
29/02:30am 14.7 12.2 6.5 58 4.0 ENE 9 11 5 6 1021.3 1021.2 0.0
29/02:00am 13.9 11.4 6.5 61 3.6 NE 9 11 5 6 1021.6 1021.5 0.0
29/01:30am 15.0 13.1 6.6 57 4.1 NE 6 7 3 4 1021.9 1021.8 0.0
29/01:00am 14.3 13.5 6.4 59 3.8 CALM 0 0 0 0 1021.8 1021.7 0.0
29/12:30am 15.0 12.9 6.6 57 4.1 NE 7 9 4 5 1021.6 1021.5 0.0
29/12:00am 14.5 12.0 6.6 59 3.8 NE 9 11 5 6 1021.7 1021.6 0.0
 
Date/Time
CDT
Temp
°C
App
Temp
°C
Dew
Point
Rel
Hum
%
Delta-T
°C
Wind Press
QNH
hPa
Press
MSL
hPa
Rain
since 9 am
mm
Dir
 
Spd
km/h
Gust
km/h
Spd
kts
Gust
kts
28/11:30pm 15.9 14.4 6.6 54 4.5 ENE 4 9 2 5 1021.8 1021.7 0.0
28/11:00pm 15.7 14.9 6.7 55 4.4 CALM 0 0 0 0 1022.0 1021.9 0.0
28/10:30pm 15.5 14.7 6.5 55 4.4 CALM 0 0 0 0 1022.3 1022.2 0.0
28/10:00pm 16.6 14.6 6.4 51 5.0 ENE 6 6 3 3 1022.2 1022.1 0.0

Other Formats:

Comma delimited format used in spreadsheet applications
http://www.bom.gov.au/fwo/IDS60801/IDS60801.95676.axf

JavaScript Object Notation format (JSON) in row-major order
http://www.bom.gov.au/fwo/IDS60801/IDS60801.95676.json